createdAt,value
2018-05-18T00:00:31.046Z,22.19
2018-05-18T00:01:33.537Z,22.19
2018-05-18T00:02:36.066Z,22.19
2018-05-18T00:03:38.601Z,22.20
2018-05-18T00:04:41.095Z,22.20
2018-05-18T00:05:43.702Z,22.20
2018-05-18T00:06:46.216Z,22.21
2018-05-18T00:07:48.714Z,22.22
2018-05-18T00:08:51.195Z,22.23
2018-05-18T00:09:53.667Z,22.23
2018-05-18T00:10:56.157Z,22.24
2018-05-18T00:11:58.630Z,22.24
2018-05-18T00:13:01.146Z,22.24
2018-05-18T00:14:03.653Z,22.24
2018-05-18T00:15:06.163Z,22.25
2018-05-18T00:16:08.667Z,22.25
2018-05-18T00:17:11.161Z,22.25
2018-05-18T00:18:13.679Z,22.24
2018-05-18T00:19:16.164Z,22.25
2018-05-18T00:20:23.553Z,22.26
2018-05-18T00:21:26.040Z,22.27
2018-05-18T00:22:28.517Z,22.27
2018-05-18T00:23:31.035Z,22.26
2018-05-18T00:24:33.564Z,22.26
2018-05-18T00:25:36.049Z,22.26
2018-05-18T00:26:38.582Z,22.27
2018-05-18T00:27:41.066Z,22.28
2018-05-18T00:28:43.605Z,22.29
2018-05-18T00:29:46.097Z,22.31
2018-05-18T00:30:48.593Z,22.31
2018-05-18T00:31:51.073Z,22.29
2018-05-18T00:32:53.587Z,22.29
2018-05-18T00:33:56.078Z,22.29
2018-05-18T00:34:58.615Z,22.30
2018-05-18T00:36:01.094Z,22.30
2018-05-18T00:37:03.620Z,22.29
2018-05-18T00:38:06.109Z,22.30
2018-05-18T00:39:08.641Z,22.29
2018-05-18T00:40:11.155Z,22.29
2018-05-18T00:41:13.667Z,22.29
2018-05-18T00:42:16.143Z,22.29
2018-05-18T00:43:18.655Z,22.29
2018-05-18T00:44:21.190Z,22.29
2018-05-18T00:45:23.685Z,22.29
2018-05-18T00:46:26.203Z,22.29
2018-05-18T00:47:28.694Z,22.29
2018-05-18T00:48:31.185Z,22.29
2018-05-18T00:49:33.715Z,22.29
2018-05-18T00:50:36.190Z,22.29
2018-05-18T00:51:38.695Z,22.29
2018-05-18T00:52:41.209Z,22.29
2018-05-18T00:53:43.708Z,22.29
2018-05-18T00:54:46.239Z,22.29
2018-05-18T00:55:48.733Z,22.28
2018-05-18T00:56:51.225Z,22.27
2018-05-18T00:57:53.756Z,22.28
2018-05-18T00:58:56.238Z,22.27
2018-05-18T00:59:58.752Z,22.26
2018-05-18T01:01:01.223Z,22.26
2018-05-18T01:02:03.752Z,22.27
2018-05-18T01:03:06.249Z,22.24
2018-05-18T01:04:08.764Z,22.23
2018-05-18T01:05:11.278Z,22.22
2018-05-18T01:06:13.844Z,22.21
2018-05-18T01:07:16.328Z,22.20
2018-05-18T01:08:18.805Z,22.18
2018-05-18T01:09:21.297Z,22.18
2018-05-18T01:10:23.844Z,22.17
2018-05-18T01:11:26.318Z,22.16
2018-05-18T01:12:28.824Z,22.15
2018-05-18T01:13:31.337Z,22.14
2018-05-18T01:14:33.855Z,22.14
2018-05-18T01:15:36.366Z,22.13
2018-05-18T01:16:38.846Z,22.12
2018-05-18T01:17:41.348Z,22.12
2018-05-18T01:18:43.837Z,22.12
2018-05-18T01:19:46.329Z,22.12
2018-05-18T01:20:48.820Z,22.13
2018-05-18T01:21:51.406Z,22.12
2018-05-18T01:22:53.901Z,22.13
2018-05-18T01:23:56.411Z,22.12
2018-05-18T01:24:58.900Z,22.13
2018-05-18T01:26:01.414Z,22.11
2018-05-18T01:27:03.888Z,22.12
2018-05-18T01:28:06.371Z,22.10
2018-05-18T01:29:08.900Z,22.10
2018-05-18T01:30:11.365Z,22.09
2018-05-18T01:31:13.881Z,22.08
2018-05-18T01:32:16.387Z,22.07
2018-05-18T01:33:18.873Z,22.06
2018-05-18T01:34:21.358Z,22.06
2018-05-18T01:35:23.854Z,22.06
2018-05-18T01:36:26.363Z,22.05
2018-05-18T01:37:28.909Z,22.05
2018-05-18T01:38:31.386Z,22.05
2018-05-18T01:39:33.860Z,22.03
2018-05-18T01:40:36.349Z,22.02
2018-05-18T01:41:38.884Z,22.02
2018-05-18T01:42:41.377Z,22.01
2018-05-18T01:43:43.886Z,22.00
2018-05-18T01:44:46.367Z,22.00
2018-05-18T01:45:48.884Z,22.00
2018-05-18T01:46:51.370Z,22.00
2018-05-18T01:47:53.841Z,21.98
2018-05-18T01:48:56.315Z,21.98
2018-05-18T01:49:58.820Z,21.97
2018-05-18T01:51:01.313Z,21.97
2018-05-18T01:52:03.802Z,21.96
2018-05-18T01:53:06.319Z,21.96
2018-05-18T01:54:08.794Z,21.96
2018-05-18T01:55:11.295Z,21.95
2018-05-18T01:56:13.773Z,21.95
2018-05-18T01:57:16.276Z,21.95
2018-05-18T01:58:18.779Z,21.95
2018-05-18T01:59:21.262Z,21.95
2018-05-18T02:00:23.771Z,21.95
2018-05-18T02:01:26.242Z,21.96
2018-05-18T02:02:28.754Z,21.96
2018-05-18T02:03:31.237Z,21.96
2018-05-18T02:04:33.727Z,21.96
2018-05-18T02:05:36.216Z,21.96
2018-05-18T02:06:38.694Z,21.96
2018-05-18T02:07:41.195Z,21.96
2018-05-18T02:08:43.682Z,21.96
2018-05-18T02:09:46.177Z,21.96
2018-05-18T02:10:48.689Z,21.97
2018-05-18T02:11:51.162Z,21.96
2018-05-18T02:12:53.662Z,21.96
2018-05-18T02:13:56.176Z,21.96
2018-05-18T02:14:58.710Z,21.98
2018-05-18T02:16:01.187Z,21.98
2018-05-18T02:17:03.687Z,21.99
2018-05-18T02:18:06.186Z,21.99
2018-05-18T02:19:08.731Z,21.99
2018-05-18T02:20:11.221Z,21.99
2018-05-18T02:21:13.713Z,22.01
2018-05-18T02:22:16.223Z,22.01
2018-05-18T02:23:18.752Z,22.01
2018-05-18T02:24:21.241Z,22.01
2018-05-18T02:25:23.728Z,22.01
2018-05-18T02:26:26.217Z,22.02
2018-05-18T02:27:28.689Z,22.02
2018-05-18T02:28:31.197Z,22.01
2018-05-18T02:29:33.703Z,22.01
2018-05-18T02:30:36.233Z,22.01
2018-05-18T02:31:38.725Z,22.02
2018-05-18T02:32:41.231Z,22.01
2018-05-18T02:33:43.759Z,22.03
2018-05-18T02:34:46.266Z,22.03
2018-05-18T02:35:48.757Z,22.05
2018-05-18T02:36:51.251Z,22.05
2018-05-18T02:37:53.758Z,22.05
2018-05-18T02:38:56.273Z,22.06
2018-05-18T02:39:58.779Z,22.07
2018-05-18T02:41:01.294Z,22.08
2018-05-18T02:42:03.807Z,22.08
2018-05-18T02:43:06.317Z,22.09
2018-05-18T02:44:08.855Z,22.08
2018-05-18T02:45:11.345Z,22.06
2018-05-18T02:46:13.923Z,22.06
2018-05-18T02:47:16.403Z,22.05
2018-05-18T02:48:18.915Z,22.04
2018-05-18T02:49:21.422Z,22.02
2018-05-18T02:50:23.923Z,22.01
2018-05-18T02:51:26.424Z,22.00
2018-05-18T02:52:28.915Z,21.99
2018-05-18T02:53:31.435Z,21.98
2018-05-18T02:54:33.963Z,21.98
2018-05-18T02:55:36.461Z,21.97
2018-05-18T02:56:38.963Z,21.96
2018-05-18T02:57:41.472Z,21.96
2018-05-18T02:58:43.972Z,21.94
2018-05-18T02:59:46.499Z,21.94
2018-05-18T03:00:48.993Z,21.94
2018-05-18T03:01:51.755Z,21.92
2018-05-18T03:02:54.241Z,21.92
2018-05-18T03:03:56.719Z,21.92
2018-05-18T03:04:59.234Z,21.91
2018-05-18T03:06:01.756Z,21.91
2018-05-18T03:07:04.625Z,21.90
2018-05-18T03:08:07.162Z,21.90
2018-05-18T03:09:09.653Z,21.89
2018-05-18T03:10:12.263Z,21.88
2018-05-18T03:11:14.768Z,21.89
2018-05-18T03:12:17.262Z,21.88
2018-05-18T03:13:19.748Z,21.88
2018-05-18T03:14:22.283Z,21.87
2018-05-18T03:15:24.783Z,21.87
2018-05-18T03:16:27.273Z,21.86
2018-05-18T03:17:29.775Z,21.86
2018-05-18T03:18:32.274Z,21.87
2018-05-18T03:19:34.742Z,21.88
2018-05-18T03:20:37.270Z,21.88
2018-05-18T03:21:39.745Z,21.89
2018-05-18T03:22:42.239Z,21.89
2018-05-18T03:23:44.726Z,21.88
2018-05-18T03:24:47.225Z,21.87
2018-05-18T03:25:49.744Z,21.87
2018-05-18T03:26:52.233Z,21.86
2018-05-18T03:27:54.721Z,21.87
2018-05-18T03:28:57.232Z,21.86
2018-05-18T03:29:59.751Z,21.86
2018-05-18T03:31:02.266Z,21.88
2018-05-18T03:32:04.854Z,21.88
2018-05-18T03:33:07.273Z,21.88
2018-05-18T03:34:09.775Z,21.88
2018-05-18T03:35:12.267Z,21.87
2018-05-18T03:36:14.759Z,21.87
2018-05-18T03:37:17.271Z,21.86
2018-05-18T03:38:19.762Z,21.87
2018-05-18T03:39:22.364Z,21.87
2018-05-18T03:40:24.852Z,21.87
2018-05-18T03:41:27.443Z,21.87
2018-05-18T03:42:29.937Z,21.87
2018-05-18T03:43:32.410Z,21.87
2018-05-18T03:44:34.901Z,21.86
2018-05-18T03:45:37.413Z,21.86
2018-05-18T03:46:39.946Z,21.87
2018-05-18T03:47:42.427Z,21.88
2018-05-18T03:48:44.924Z,21.87
2018-05-18T03:49:47.429Z,21.86
2018-05-18T03:50:49.992Z,21.86
2018-05-18T03:51:52.503Z,21.87
2018-05-18T03:52:54.992Z,21.86
2018-05-18T03:53:57.489Z,21.84
2018-05-18T03:55:00.000Z,21.84
2018-05-18T03:56:02.505Z,21.83
2018-05-18T03:57:05.031Z,21.82
2018-05-18T03:58:07.544Z,21.82
2018-05-18T03:59:10.049Z,21.82
2018-05-18T04:00:12.522Z,21.82
2018-05-18T04:01:26.917Z,21.82
2018-05-18T04:02:41.193Z,21.82
2018-05-18T04:03:55.629Z,21.80
2018-05-18T04:05:09.908Z,21.80
2018-05-18T04:06:24.161Z,21.79
2018-05-18T04:07:38.302Z,21.79
2018-05-18T04:08:52.274Z,21.79
2018-05-18T04:09:54.754Z,21.79
2018-05-18T04:10:57.264Z,21.79
2018-05-18T04:11:59.788Z,21.79
2018-05-18T04:13:02.280Z,21.78
2018-05-18T04:14:04.835Z,21.78
2018-05-18T04:15:07.323Z,21.78
2018-05-18T04:16:09.816Z,21.76
2018-05-18T04:17:12.317Z,21.78
2018-05-18T04:18:14.790Z,21.78
2018-05-18T04:19:17.306Z,21.77
2018-05-18T04:20:19.820Z,21.77
2018-05-18T04:21:22.332Z,21.77
2018-05-18T04:22:24.802Z,21.77
2018-05-18T04:23:27.293Z,21.77
2018-05-18T04:24:29.814Z,21.77
2018-05-18T04:25:32.344Z,21.76
2018-05-18T04:26:34.818Z,21.76
2018-05-18T04:27:37.301Z,21.76
2018-05-18T04:28:39.792Z,21.76
2018-05-18T04:29:42.286Z,21.77
2018-05-18T04:30:44.759Z,21.77
2018-05-18T04:31:47.256Z,21.77
2018-05-18T04:32:49.731Z,21.77
2018-05-18T04:33:52.285Z,21.77
2018-05-18T04:34:54.777Z,21.78
2018-05-18T04:35:57.283Z,21.78
2018-05-18T04:36:59.804Z,21.75
2018-05-18T04:38:02.300Z,21.75
2018-05-18T04:39:07.590Z,21.73
2018-05-18T04:40:10.097Z,21.70
2018-05-18T04:41:12.605Z,21.67
2018-05-18T04:42:15.104Z,21.64
2018-05-18T04:43:17.692Z,21.60
2018-05-18T04:44:20.145Z,21.57
2018-05-18T04:45:22.687Z,21.53
2018-05-18T04:46:25.203Z,21.49
2018-05-18T04:47:27.700Z,21.47
2018-05-18T04:48:30.198Z,21.45
2018-05-18T04:49:32.717Z,21.41
2018-05-18T04:50:35.257Z,21.37
2018-05-18T04:51:37.762Z,21.32
2018-05-18T04:52:40.246Z,21.31
2018-05-18T04:53:42.774Z,21.27
2018-05-18T04:54:45.252Z,21.25
2018-05-18T04:55:47.735Z,21.23
2018-05-18T04:56:50.216Z,21.22
2018-05-18T04:57:52.717Z,21.20
2018-05-18T04:58:55.286Z,21.18
2018-05-18T04:59:57.750Z,21.18
2018-05-18T05:01:00.249Z,21.16
2018-05-18T05:02:02.779Z,21.15
2018-05-18T05:03:05.297Z,21.13
2018-05-18T05:04:07.810Z,21.13
2018-05-18T05:05:10.641Z,21.11
2018-05-18T05:06:13.137Z,21.10
2018-05-18T05:07:15.622Z,21.10
2018-05-18T05:08:18.123Z,21.10
2018-05-18T05:09:20.598Z,21.10
2018-05-18T05:10:23.107Z,21.11
2018-05-18T05:11:25.619Z,21.15
2018-05-18T05:12:28.127Z,21.16
2018-05-18T05:13:30.855Z,21.17
2018-05-18T05:14:33.358Z,21.17
2018-05-18T05:15:35.851Z,21.19
2018-05-18T05:16:38.379Z,21.19
2018-05-18T05:17:40.895Z,21.19
2018-05-18T05:18:43.380Z,21.17
2018-05-18T05:19:45.863Z,21.16
2018-05-18T05:20:48.351Z,21.14
2018-05-18T05:21:50.848Z,21.12
2018-05-18T05:22:53.359Z,21.09
2018-05-18T05:23:55.864Z,21.08
2018-05-18T05:24:58.362Z,21.04
2018-05-18T05:26:00.843Z,20.98
2018-05-18T05:27:03.345Z,20.96
2018-05-18T05:28:05.993Z,20.94
2018-05-18T05:29:08.493Z,20.91
2018-05-18T05:30:10.986Z,20.88
2018-05-18T05:31:13.503Z,20.84
2018-05-18T05:32:16.084Z,20.81
2018-05-18T05:33:18.572Z,20.77
2018-05-18T05:34:21.073Z,20.73
2018-05-18T05:35:23.558Z,20.68
2018-05-18T05:36:26.073Z,20.64
2018-05-18T05:37:28.598Z,20.60
2018-05-18T05:38:31.438Z,20.57
2018-05-18T05:39:34.427Z,20.56
2018-05-18T05:40:37.201Z,20.53
2018-05-18T05:41:39.696Z,20.51
2018-05-18T05:42:42.236Z,20.47
2018-05-18T05:43:44.726Z,20.44
2018-05-18T05:44:47.229Z,20.45
2018-05-18T05:45:49.739Z,20.45
2018-05-18T05:46:52.390Z,20.43
2018-05-18T05:47:54.889Z,20.44
2018-05-18T05:48:57.382Z,20.41
2018-05-18T05:49:59.887Z,20.42
2018-05-18T05:51:02.394Z,20.43
2018-05-18T05:52:04.909Z,20.45
2018-05-18T05:53:07.431Z,20.47
2018-05-18T05:54:09.933Z,20.50
2018-05-18T05:55:12.455Z,20.52
2018-05-18T05:56:14.961Z,20.55
2018-05-18T05:57:17.586Z,20.58
2018-05-18T05:58:20.114Z,20.60
2018-05-18T05:59:22.639Z,20.62
2018-05-18T06:00:25.698Z,20.65
2018-05-18T06:01:28.271Z,20.67
2018-05-18T06:02:30.775Z,20.69
2018-05-18T06:03:33.287Z,20.71
2018-05-18T06:04:35.785Z,20.74
2018-05-18T06:05:38.280Z,20.75
2018-05-18T06:06:40.797Z,20.77
2018-05-18T06:07:43.278Z,20.79
2018-05-18T06:08:45.758Z,20.80
2018-05-18T06:09:48.261Z,20.81
2018-05-18T06:10:50.773Z,20.82
2018-05-18T06:11:53.374Z,20.83
2018-05-18T06:12:55.880Z,20.85
2018-05-18T06:13:58.422Z,20.86
2018-05-18T06:15:00.925Z,20.86
2018-05-18T06:16:03.467Z,20.88
2018-05-18T06:17:05.957Z,20.88
2018-05-18T06:18:08.465Z,20.88
2018-05-18T06:19:10.971Z,20.88
2018-05-18T06:20:13.470Z,20.89
2018-05-18T06:21:15.981Z,20.89
2018-05-18T06:22:18.544Z,20.89
2018-05-18T06:23:21.058Z,20.89
2018-05-18T06:24:23.542Z,20.90
2018-05-18T06:25:26.054Z,20.90
2018-05-18T06:26:28.568Z,20.90
2018-05-18T06:27:31.073Z,20.90
2018-05-18T06:28:33.572Z,20.90
2018-05-18T06:29:36.080Z,20.90
2018-05-18T06:30:38.611Z,20.90
2018-05-18T06:31:41.124Z,20.90
2018-05-18T06:32:43.640Z,20.90
2018-05-18T06:33:46.157Z,20.91
2018-05-18T06:34:48.716Z,20.91
2018-05-18T06:35:51.217Z,20.91
2018-05-18T06:36:53.718Z,20.91
2018-05-18T06:37:56.206Z,20.91
2018-05-18T06:38:58.686Z,20.92
2018-05-18T06:40:01.204Z,20.92
2018-05-18T06:41:03.740Z,20.92
2018-05-18T06:42:06.237Z,20.92
2018-05-18T06:43:08.747Z,20.93
2018-05-18T06:44:11.223Z,20.94
2018-05-18T06:45:13.757Z,20.94
2018-05-18T06:46:16.253Z,20.94
2018-05-18T06:47:18.737Z,20.94
2018-05-18T06:48:21.233Z,20.95
2018-05-18T06:49:23.757Z,20.96
2018-05-18T06:50:26.274Z,20.96
2018-05-18T06:51:28.787Z,20.96
2018-05-18T06:52:31.287Z,20.97
2018-05-18T06:53:33.789Z,20.98
2018-05-18T06:54:36.291Z,20.98
2018-05-18T06:55:38.812Z,20.99
2018-05-18T06:56:41.446Z,21.01
2018-05-18T06:57:43.929Z,21.02
2018-05-18T06:58:46.488Z,21.02
2018-05-18T06:59:48.986Z,21.03
2018-05-18T07:00:51.539Z,21.04
2018-05-18T07:01:54.041Z,21.05
2018-05-18T07:02:56.521Z,21.06
2018-05-18T07:03:59.115Z,21.07
2018-05-18T07:05:01.617Z,21.07
2018-05-18T07:06:04.132Z,21.08
2018-05-18T07:07:06.647Z,21.10
2018-05-18T07:08:09.143Z,21.11
2018-05-18T07:09:11.627Z,21.13
2018-05-18T07:10:14.138Z,21.13
2018-05-18T07:11:16.660Z,21.14
2018-05-18T07:12:19.176Z,21.15
2018-05-18T07:13:21.677Z,21.14
2018-05-18T07:14:24.197Z,21.13
2018-05-18T07:15:26.687Z,21.12
2018-05-18T07:16:29.268Z,21.12
2018-05-18T07:17:31.690Z,21.11
2018-05-18T07:18:34.188Z,21.10
2018-05-18T07:19:36.702Z,21.11
2018-05-18T07:20:39.198Z,21.09
2018-05-18T07:21:41.679Z,21.09
2018-05-18T07:22:44.159Z,21.10
2018-05-18T07:23:46.659Z,21.10
2018-05-18T07:24:49.201Z,21.11
2018-05-18T07:25:52.616Z,21.12
2018-05-18T07:26:55.157Z,21.13
2018-05-18T07:27:57.694Z,21.13
2018-05-18T07:29:00.213Z,21.15
2018-05-18T07:30:02.818Z,21.15
2018-05-18T07:31:05.262Z,21.16
2018-05-18T07:32:07.768Z,21.17
2018-05-18T07:33:10.272Z,21.18
2018-05-18T07:34:12.783Z,21.19
2018-05-18T07:35:15.273Z,21.20
2018-05-18T07:36:17.807Z,21.22
2018-05-18T07:37:20.266Z,21.22
2018-05-18T07:38:22.776Z,21.23
2018-05-18T07:39:25.381Z,21.24
2018-05-18T07:40:27.823Z,21.25
2018-05-18T07:41:30.347Z,21.25
2018-05-18T07:42:32.877Z,21.26
2018-05-18T07:43:35.403Z,21.27
2018-05-18T07:44:37.915Z,21.27
2018-05-18T07:45:40.437Z,21.28
2018-05-18T07:46:42.923Z,21.28
2018-05-18T07:47:45.430Z,21.29
2018-05-18T07:48:47.971Z,21.30
2018-05-18T07:49:50.497Z,21.31
2018-05-18T07:50:53.092Z,21.31
2018-05-18T07:51:55.594Z,21.31
2018-05-18T07:52:58.121Z,21.34
2018-05-18T07:54:00.693Z,21.34
2018-05-18T07:55:03.188Z,21.33
2018-05-18T07:56:05.697Z,21.34
2018-05-18T07:57:08.209Z,21.34
2018-05-18T07:58:10.694Z,21.33
2018-05-18T07:59:13.216Z,21.32
2018-05-18T08:00:15.752Z,21.31
2018-05-18T08:01:18.234Z,21.31
2018-05-18T08:02:20.723Z,21.29
2018-05-18T08:03:23.244Z,21.28
2018-05-18T08:04:25.736Z,21.26
2018-05-18T08:05:28.246Z,21.25
2018-05-18T08:06:30.759Z,21.24
2018-05-18T08:07:33.247Z,21.24
2018-05-18T08:08:35.731Z,21.24
2018-05-18T08:09:38.245Z,21.24
2018-05-18T08:10:40.802Z,21.25
2018-05-18T08:11:43.302Z,21.25
2018-05-18T08:12:45.804Z,21.26
2018-05-18T08:13:48.347Z,21.26
2018-05-18T08:14:50.853Z,21.26
2018-05-18T08:15:53.392Z,21.26
2018-05-18T08:16:55.898Z,21.25
2018-05-18T08:17:58.432Z,21.25
2018-05-18T08:19:00.951Z,21.25
2018-05-18T08:20:03.471Z,21.25
2018-05-18T08:21:05.986Z,21.24
2018-05-18T08:22:08.499Z,21.24
2018-05-18T08:23:11.022Z,21.23
2018-05-18T08:24:13.506Z,21.22
2018-05-18T08:25:16.001Z,21.22
2018-05-18T08:26:18.545Z,21.22
2018-05-18T08:27:23.824Z,21.23
2018-05-18T08:28:26.351Z,21.23
2018-05-18T08:29:35.660Z,21.23
2018-05-18T08:30:49.875Z,21.25
2018-05-18T08:31:52.389Z,21.27
2018-05-18T08:32:54.880Z,21.27
2018-05-18T08:33:57.371Z,21.27
2018-05-18T08:34:59.925Z,21.29
2018-05-18T08:36:02.451Z,21.29
2018-05-18T08:37:04.957Z,21.29
2018-05-18T08:38:07.452Z,21.30
2018-05-18T08:39:09.982Z,21.29
2018-05-18T08:40:12.487Z,21.29
2018-05-18T08:41:14.984Z,21.29
2018-05-18T08:42:17.515Z,21.28
2018-05-18T08:43:20.017Z,21.28
2018-05-18T08:44:22.503Z,21.27
2018-05-18T08:45:24.998Z,21.26
2018-05-18T08:46:27.505Z,21.24
2018-05-18T08:47:29.998Z,21.23
2018-05-18T08:48:32.493Z,21.21
2018-05-18T08:49:35.019Z,21.18
2018-05-18T08:50:37.541Z,21.17
2018-05-18T08:51:40.038Z,21.15
2018-05-18T08:52:45.272Z,21.13
2018-05-18T08:53:47.769Z,21.12
2018-05-18T08:54:50.272Z,21.12
2018-05-18T08:55:52.791Z,21.11
2018-05-18T08:56:55.329Z,21.11
2018-05-18T08:57:57.910Z,21.11
2018-05-18T08:59:00.400Z,21.10
2018-05-18T09:00:02.900Z,21.09
2018-05-18T09:01:05.394Z,21.10
2018-05-18T09:02:07.925Z,21.10
2018-05-18T09:03:10.431Z,21.10
2018-05-18T09:04:12.971Z,21.08
2018-05-18T09:05:15.464Z,21.10
2018-05-18T09:06:18.096Z,21.10
2018-05-18T09:07:20.594Z,21.09
2018-05-18T09:08:23.100Z,21.10
2018-05-18T09:09:25.596Z,21.10
2018-05-18T09:10:28.098Z,21.10
2018-05-18T09:11:30.641Z,21.09
2018-05-18T09:12:33.133Z,21.10
2018-05-18T09:13:35.656Z,21.09
2018-05-18T09:14:38.161Z,21.09
2018-05-18T09:15:40.701Z,21.10
2018-05-18T09:16:43.212Z,21.10
2018-05-18T09:17:45.708Z,21.10
2018-05-18T09:18:48.292Z,21.10
2018-05-18T09:19:50.793Z,21.10
2018-05-18T09:20:53.355Z,21.10
2018-05-18T09:21:55.873Z,21.10
2018-05-18T09:22:58.377Z,21.11
2018-05-18T09:24:00.886Z,21.11
2018-05-18T09:25:03.400Z,21.11
2018-05-18T09:26:05.998Z,21.11
2018-05-18T09:27:08.498Z,21.11
2018-05-18T09:28:11.002Z,21.11
2018-05-18T09:29:13.494Z,21.12
2018-05-18T09:30:15.981Z,21.12
2018-05-18T09:31:18.474Z,21.12
2018-05-18T09:32:21.070Z,21.11
2018-05-18T09:33:23.568Z,21.12
2018-05-18T09:34:26.071Z,21.12
2018-05-18T09:35:28.592Z,21.12
2018-05-18T09:36:31.150Z,21.12
2018-05-18T09:37:33.653Z,21.12
2018-05-18T09:38:36.152Z,21.13
2018-05-18T09:39:38.750Z,21.12
2018-05-18T09:40:41.271Z,21.12
2018-05-18T09:41:43.787Z,21.12
2018-05-18T09:42:46.371Z,21.12
2018-05-18T09:43:48.863Z,21.12
2018-05-18T09:44:51.385Z,21.12
2018-05-18T09:45:53.895Z,21.12
2018-05-18T09:46:56.413Z,21.12
2018-05-18T09:47:58.909Z,21.11
2018-05-18T09:49:01.423Z,21.11
2018-05-18T09:50:04.021Z,21.11
2018-05-18T09:51:06.465Z,21.11
2018-05-18T09:52:09.007Z,21.11
2018-05-18T09:53:13.757Z,21.11
2018-05-18T09:54:14.060Z,21.11
2018-05-18T09:55:16.845Z,21.11
2018-05-18T09:56:19.078Z,21.12
2018-05-18T09:57:21.595Z,21.11
2018-05-18T09:58:24.089Z,21.11
2018-05-18T09:59:26.614Z,21.11
2018-05-18T10:00:29.162Z,21.11
2018-05-18T10:01:31.667Z,21.11
2018-05-18T10:02:34.181Z,21.11
2018-05-18T10:03:36.703Z,21.12
2018-05-18T10:04:39.189Z,21.12
2018-05-18T10:05:41.699Z,21.12
2018-05-18T10:06:44.275Z,21.12
2018-05-18T10:07:46.801Z,21.11
2018-05-18T10:08:49.331Z,21.12
2018-05-18T10:09:51.821Z,21.12
2018-05-18T10:10:54.321Z,21.12
2018-05-18T10:11:56.838Z,21.12
2018-05-18T10:12:59.372Z,21.12
2018-05-18T10:14:01.859Z,21.12
2018-05-18T10:15:04.365Z,21.12
2018-05-18T10:16:06.884Z,21.12
2018-05-18T10:17:09.389Z,21.13
2018-05-18T10:18:11.894Z,21.12
2018-05-18T10:19:14.420Z,21.13
2018-05-18T10:20:16.939Z,21.13
2018-05-18T10:21:19.561Z,21.13
2018-05-18T10:22:22.161Z,21.13
2018-05-18T10:23:24.770Z,21.13
2018-05-18T10:24:27.291Z,21.13
2018-05-18T10:25:29.804Z,21.12
2018-05-18T10:26:32.291Z,21.13
2018-05-18T10:27:34.825Z,21.12
2018-05-18T10:28:37.330Z,21.13
2018-05-18T10:29:39.824Z,21.13
2018-05-18T10:30:42.314Z,21.13
2018-05-18T10:31:44.838Z,21.12
2018-05-18T10:32:47.375Z,21.13
2018-05-18T10:33:49.919Z,21.12
2018-05-18T10:34:52.410Z,21.12
2018-05-18T10:35:54.933Z,21.12
2018-05-18T10:36:57.425Z,21.13
2018-05-18T10:37:59.935Z,21.12
2018-05-18T10:39:02.468Z,21.12
2018-05-18T10:40:04.951Z,21.12
2018-05-18T10:41:07.434Z,21.12
2018-05-18T10:42:09.933Z,21.11
2018-05-18T10:43:12.458Z,21.11
2018-05-18T10:44:14.961Z,21.10
2018-05-18T10:45:17.507Z,21.10
2018-05-18T10:46:19.967Z,21.10
2018-05-18T10:47:22.481Z,21.10
2018-05-18T10:48:24.996Z,21.10
2018-05-18T10:49:27.517Z,21.09
2018-05-18T10:50:30.047Z,21.10
2018-05-18T10:51:32.565Z,21.09
2018-05-18T10:52:35.093Z,21.09
2018-05-18T10:53:37.597Z,21.10
2018-05-18T10:54:40.133Z,21.09
2018-05-18T10:55:42.618Z,21.10
2018-05-18T10:56:45.150Z,21.09
2018-05-18T10:57:47.633Z,21.09
2018-05-18T10:58:50.138Z,21.09
2018-05-18T10:59:52.647Z,21.09
2018-05-18T11:00:55.159Z,21.09
2018-05-18T11:01:57.686Z,21.09
2018-05-18T11:03:00.182Z,21.09
2018-05-18T11:04:02.709Z,21.08
2018-05-18T11:05:05.280Z,21.09
2018-05-18T11:06:07.847Z,21.09
2018-05-18T11:07:10.379Z,21.09
2018-05-18T11:08:12.892Z,21.09
2018-05-18T11:09:15.422Z,21.09
2018-05-18T11:10:17.969Z,21.08
2018-05-18T11:11:20.459Z,21.08
2018-05-18T11:12:22.964Z,21.08
2018-05-18T11:13:25.868Z,21.08
2018-05-18T11:14:28.414Z,21.07
2018-05-18T11:15:30.937Z,21.07
2018-05-18T11:16:33.436Z,21.07
2018-05-18T11:17:35.913Z,21.08
2018-05-18T11:18:38.402Z,21.07
2018-05-18T11:19:40.900Z,21.07
2018-05-18T11:20:43.577Z,21.06
2018-05-18T11:21:46.080Z,21.06
2018-05-18T11:22:48.585Z,21.06
2018-05-18T11:23:51.095Z,21.05
2018-05-18T11:24:53.592Z,21.05
2018-05-18T11:25:56.106Z,21.05
2018-05-18T11:26:58.605Z,21.05
2018-05-18T11:28:01.116Z,21.05
2018-05-18T11:29:03.609Z,21.06
2018-05-18T11:30:06.105Z,21.05
2018-05-18T11:31:08.631Z,21.05
2018-05-18T11:32:11.152Z,21.06
2018-05-18T11:33:13.691Z,21.05
2018-05-18T11:34:16.183Z,21.05
2018-05-18T11:35:18.687Z,21.05
2018-05-18T11:36:21.294Z,21.04
2018-05-18T11:37:23.753Z,21.04
2018-05-18T11:38:26.253Z,21.03
2018-05-18T11:39:28.749Z,21.03
2018-05-18T11:40:31.305Z,21.03
2018-05-18T11:41:33.815Z,21.03
2018-05-18T11:42:36.295Z,21.03
2018-05-18T11:43:38.939Z,21.03
2018-05-18T11:44:41.418Z,21.03
2018-05-18T11:45:43.919Z,21.03
2018-05-18T11:46:46.433Z,21.03
2018-05-18T11:47:48.923Z,21.02
2018-05-18T11:48:51.402Z,21.03
2018-05-18T11:49:53.916Z,21.02
2018-05-18T11:50:56.400Z,21.02
2018-05-18T11:51:58.909Z,21.02
2018-05-18T11:53:01.391Z,21.02
2018-05-18T11:54:04.186Z,21.02
2018-05-18T11:55:06.702Z,21.02
2018-05-18T11:56:09.220Z,21.02
2018-05-18T11:57:11.741Z,21.01
2018-05-18T11:58:14.237Z,21.01
2018-05-18T11:59:16.847Z,21.01
2018-05-18T12:00:19.350Z,21.00
2018-05-18T12:01:21.861Z,21.01
2018-05-18T12:02:24.353Z,21.01
2018-05-18T12:03:26.858Z,21.00
2018-05-18T12:04:29.343Z,21.01
2018-05-18T12:05:31.827Z,21.01
2018-05-18T12:06:34.358Z,21.00
2018-05-18T12:07:36.857Z,21.01
2018-05-18T12:08:39.434Z,21.01
2018-05-18T12:09:41.863Z,21.01
2018-05-18T12:10:44.361Z,21.00
2018-05-18T12:11:46.889Z,21.00
2018-05-18T12:12:49.389Z,21.00
2018-05-18T12:13:51.888Z,21.00
2018-05-18T12:14:54.367Z,20.99
2018-05-18T12:15:56.866Z,20.99
2018-05-18T12:16:59.367Z,21.00
2018-05-18T12:18:01.853Z,20.99
2018-05-18T12:19:04.359Z,20.99
2018-05-18T12:20:06.864Z,20.98
2018-05-18T12:21:09.362Z,20.98
2018-05-18T12:22:11.875Z,20.98
2018-05-18T12:23:14.399Z,20.97
2018-05-18T12:24:16.887Z,20.98
2018-05-18T12:25:19.380Z,20.97
2018-05-18T12:26:21.913Z,20.98
2018-05-18T12:27:24.420Z,20.98
2018-05-18T12:28:26.920Z,20.98
2018-05-18T12:29:29.425Z,20.98
2018-05-18T12:30:31.931Z,20.99
2018-05-18T12:31:34.501Z,20.98
2018-05-18T12:32:36.967Z,20.98
2018-05-18T12:33:39.489Z,20.99
2018-05-18T12:34:42.008Z,20.98
2018-05-18T12:35:44.586Z,20.98
2018-05-18T12:36:47.079Z,20.99
2018-05-18T12:37:49.592Z,20.99
2018-05-18T12:38:52.086Z,20.99
2018-05-18T12:39:54.566Z,20.99
2018-05-18T12:40:57.084Z,20.99
2018-05-18T12:41:59.573Z,20.99
2018-05-18T12:43:02.116Z,20.98
2018-05-18T12:44:04.644Z,20.98
2018-05-18T12:45:07.262Z,20.98
2018-05-18T12:46:09.779Z,20.98
2018-05-18T12:47:12.263Z,20.98
2018-05-18T12:48:14.771Z,20.98
2018-05-18T12:49:17.250Z,20.99
2018-05-18T12:50:19.770Z,20.98
2018-05-18T12:51:22.250Z,20.98
2018-05-18T12:52:24.746Z,20.98
2018-05-18T12:53:27.248Z,20.98
2018-05-18T12:54:29.752Z,20.99
2018-05-18T12:55:32.268Z,20.98
2018-05-18T12:56:34.773Z,20.98
2018-05-18T12:57:37.369Z,20.99
2018-05-18T12:58:39.864Z,20.98
2018-05-18T12:59:42.386Z,20.99
2018-05-18T13:00:44.905Z,20.99
2018-05-18T13:01:47.399Z,20.98
2018-05-18T13:02:49.917Z,20.99
2018-05-18T13:03:52.396Z,20.99
2018-05-18T13:04:54.927Z,20.98
2018-05-18T13:05:57.425Z,20.99
2018-05-18T13:06:59.913Z,20.99
2018-05-18T13:08:02.421Z,20.98
2018-05-18T13:09:05.856Z,20.97
2018-05-18T13:10:08.458Z,20.98
2018-05-18T13:11:10.971Z,20.98
2018-05-18T13:12:13.484Z,20.98
2018-05-18T13:13:15.977Z,20.97
2018-05-18T13:14:18.495Z,20.96
2018-05-18T13:15:20.994Z,20.96
2018-05-18T13:16:23.490Z,20.97
2018-05-18T13:17:25.970Z,20.97
2018-05-18T13:18:28.471Z,20.97
2018-05-18T13:19:30.985Z,20.97
2018-05-18T13:20:33.495Z,20.97
2018-05-18T13:21:36.003Z,20.97
2018-05-18T13:22:38.509Z,20.96
2018-05-18T13:23:41.020Z,20.96
2018-05-18T13:24:43.533Z,20.96
2018-05-18T13:25:46.041Z,20.96
2018-05-18T13:26:48.579Z,20.96